Station: Archerfield  

  Atmospheric Gas Attenuation - ITU Rec 676-11   ----------------- dB/100km -----------------
Date Time Temp RH % AH g/m3 Dew Point Wind Direction Speed kph Gust kph Barometer mB Rainfall Since 9am 24GHz 47GHz 76GHz 122GHz 134GHz 241GHz
08/05 12:30 20.9 26 4.73 0.7 13 20 1018.6 0 11.2 18.8 23.5 60.9 46.9 158.6
08/05 12:20 20.2 27 4.72 0.6 13 19 1018.8 0 11.2 18.9 23.7 61.4 47.2 159.5
08/05 12:10 19.7 25 4.24 -0.9 7 9 1019.1 0 10.2 18.4 22.3 57.7 42.5 142.9
08/05 12:00 19.7 24 4.08 -1.4 17 22 1019.4 0 9.8 18.2 21.8 56.4 40.9 137.1
08/05 11:50 19.8 25 4.27 -0.8 15 19 1019.5 0 10.2 18.4 22.4 57.9 42.8 143.9
08/05 11:40 19.7 27 4.58 0.2 15 19 1019.8 0 10.9 18.9 23.4 60.6 46.1 155.5
08/05 11:30 19.2 27 4.45 -0.2 15 24 1019.9 0 10.6 18.8 23.1 59.9 45.0 151.6
08/05 11:20 19.2 30 4.95 1.2 11 17 1020.1 0 11.7 19.5 24.7 64.2 50.3 170.3
08/05 11:10 18.7 29 4.64 0.3 13 17 1020.1 0 11.0 19.2 23.9 61.9 47.3 159.6
08/05 11:00 18.2 27 4.2 -1.1 11 20 1020.3 0 10.1 18.7 22.6 58.5 42.9 144.1
08/05 10:50 18.7 30 4.8 0.8 13 17 1020.5 0 11.4 19.4 24.4 63.3 49.0 165.7
08/05 10:40 18.4 28 4.4 -0.4 17 20 1020.6 0 10.5 18.9 23.2 60.1 44.9 151.3
08/05 10:30 17.9 29 4.43 -0.4 13 22 1020.7 0 10.6 19.1 23.5 60.7 45.5 153.3
08/05 10:20 18.1 28 4.33 -0.7 17 17 1020.9 0 10.4 18.9 23.1 59.7 44.4 149.2
08/05 10:10 17.7 30 4.53 -0.1 15 19 1020.9 0 10.8 19.2 23.8 61.7 46.7 157.5
08/05 10:00 17.4 30 4.45 -0.3 15 20 1021 0 10.7 19.2 23.7 61.3 46.0 155.0
08/05 09:50 16.9 30 4.31 -0.8 13 17 1021 0 10.4 19.1 23.4 60.4 44.8 150.6
08/05 09:40 16.7 33 4.69 0.4 17 19 1021.1 0 11.2 19.7 24.7 63.9 49.0 165.6
08/05 09:30 16.4 33 4.61 0.1 17 22 1021.3 0 11.0 19.6 24.5 63.5 48.4 163.1
08/05 09:20 16.1 36 4.93 1 17 17 1021.2 0 11.7 20.1 25.7 66.5 52.1 176.2
08/05 09:10 16.1 36 4.93 1 19 22 1021.1 0 11.7 20.1 25.6 66.5 52.1 176.2
08/05 09:00 15.7 36 4.82 0.7 17 20 1020.9 0 11.5 20.0 25.4 65.9 51.1 172.6
08/05 08:50 15.4 38 4.99 1.2 19 19 1021 0 11.9 20.3 26.1 67.6 53.2 180.0
08/05 08:40 15.1 40 5.16 1.6 19 22 1021.2 0 12.2 20.7 26.8 69.5 55.3 187.5
08/05 08:30 14.3 41 5.04 1.2 17 19 1021.2 0 12.0 20.7 26.6 69.0 54.5 184.5
08/05 08:20 13.9 43 5.16 1.5 15 17 1021.1 0 12.3 20.9 27.1 70.5 56.2 190.3
08/05 08:09 13.5 43 5.03 1.2 15 17 1021 0 12.0 20.8 26.8 69.6 54.9 185.9
08/05 08:00 13.3 47 5.43 2.2 13 19 1020.9 0 12.9 21.4 28.3 73.6 59.7 202.8
08/05 07:50 12.7 47 5.23 1.7 13 17 1020.7 0 12.5 21.3 27.8 72.2 57.8 195.9
08/05 07:39 12.2 49 5.29 1.8 13 13 1020.6 0 12.6 21.5 28.2 73.2 58.9 199.6
08/05 07:30 11.8 51 5.37 2 15 20 1020.6 0 12.8 21.7 28.6 74.3 60.1 204.0
08/05 07:20 11.5 51 5.27 1.7 15 17 1020.7 0 12.6 21.6 28.3 73.7 59.2 200.5
08/05 07:10 11.2 55 5.58 2.5 11 13 1020.6 0 13.3 22.1 29.6 77.0 63.2 214.5
08/05 07:00 10.8 55 5.44 2.1 11 15 1020.4 0 13.0 22.0 29.2 75.9 61.7 209.5
08/05 06:50 10.4 57 5.49 2.3 15 17 1020.1 0 13.1 22.2 29.5 76.8 62.7 212.6
08/05 06:40 10.1 57 5.39 2 11 11 1020.1 0 12.9 22.1 29.2 76.1 61.7 209.1
08/05 06:30 9.9 59 5.51 2.3 15 17 1020.1 0 13.2 22.3 29.8 77.5 63.3 214.8
08/05 06:20 10 59 5.55 2.4 17 19 1020 0 13.2 22.4 29.9 77.8 63.7 216.3
08/05 06:10 10 59 5.55 2.4 11 13 1019.9 0 13.2 22.4 29.9 77.8 63.7 216.3
08/05 06:00 10.3 57 5.46 2.2 9 11 1019.8 0 13.0 22.2 29.4 76.6 62.3 211.5
08/05 05:50 10.4 58 5.59 2.5 9 9 1019.6 0 13.3 22.3 29.9 77.8 63.9 216.9
08/05 05:40 10.1 60 5.68 2.7 13 15 1019.3 0 13.5 22.5 30.3 78.9 65.2 221.6
08/05 05:30 10.2 59 5.62 2.6 9 13 1019.4 0 13.4 22.4 30.0 78.2 64.4 218.7
08/05 05:20 10.2 58 5.52 2.3 9 11 1019.3 0 13.2 22.3 29.7 77.2 63.1 214.3
08/05 05:10 10.2 59 5.62 2.6 11 13 1019.2 0 13.4 22.4 30.0 78.2 64.4 218.6
08/05 05:00 10.6 58 5.66 2.7 13 17 1019 0 13.4 22.4 30.0 78.2 64.5 219.3
08/05 04:50 10.8 58 5.73 2.9 11 15 1018.8 0 13.6 22.4 30.2 78.7 65.2 221.7
08/05 04:40 10.9 59 5.87 3.2 13 15 1018.6 0 13.9 22.6 30.7 80.0 66.9 227.5
08/05 04:30 11.4 58 5.95 3.4 15 22 1018.5 0 14.0 22.6 30.8 80.3 67.4 229.5
08/05 04:20 11 61 6.11 3.8 13 13 1018.7 0 14.4 22.9 31.6 82.3 69.8 237.7
08/05 04:10 11 62 6.21 4 15 17 1018.4 0 14.6 23.1 31.9 83.3 71.0 242.0
08/05 04:00 11.6 60 6.24 4.1 17 20 1018.3 0 14.6 23.0 31.8 83.0 70.8 241.5
08/05 03:50 11.6 61 6.34 4.3 15 17 1018.1 0 14.9 23.1 32.2 84.0 72.1 245.8
08/05 03:40 11.8 61 6.42 4.5 15 15 1018.3 0 15.0 23.2 32.4 84.6 72.9 248.8
08/05 03:30 11.7 63 6.59 4.9 11 17 1018.2 0 15.4 23.5 33.1 86.4 75.1 256.6
08/05 03:20 12.1 62 6.65 5 9 11 1018.2 0 15.5 23.5 33.1 86.6 75.5 257.9
08/05 03:10 12.5 60 6.6 5 11 13 1018 0 15.4 23.3 32.8 85.6 74.5 254.4
08/05 03:00 12.8 61 6.83 5.5 17 22 1017.8 0 15.9 23.5 33.5 87.6 77.1 263.5
08/05 02:50 12.9 61 6.88 5.6 19 20 1017.8 0 16.0 23.6 33.7 88.0 77.6 265.4
08/05 02:40 12.4 61 6.67 5.1 9 11 1017.9 0 15.5 23.4 33.1 86.4 75.4 257.8
08/05 02:30 12.6 61 6.75 5.3 9 13 1017.8 0 15.7 23.5 33.3 87.0 76.2 260.6
08/05 02:20 13 61 6.92 5.7 9 13 1017.7 0 16.0 23.6 33.8 88.3 78.0 266.8
08/05 02:10 13.2 60 6.89 5.6 11 13 1017.9 0 16.0 23.5 33.6 87.8 77.4 264.8
08/05 02:00 13.1 61 6.96 5.8 15 20 1017.7 0 16.1 23.7 33.9 88.6 78.4 268.2
08/05 01:50 13.3 60 6.93 5.7 11 13 1017.9 0 16.0 23.6 33.7 88.1 77.8 266.3
08/05 01:40 13.4 59 6.86 5.6 13 17 1017.7 0 15.9 23.4 33.4 87.3 76.8 262.8
08/05 01:30 14.4 55 6.8 5.5 17 20 1017.7 0 15.7 23.1 32.8 85.6 75.1 257.0
08/05 01:20 14.8 53 6.71 5.3 19 22 1017.5 0 15.5 22.8 32.3 84.2 73.6 251.8
08/05 01:10 14.8 54 6.84 5.6 19 22 1017.6 0 15.8 23.0 32.7 85.5 75.2 257.4
08/05 01:00 15.1 53 6.84 5.6 17 22 1017.5 0 15.8 23.0 32.6 85.2 74.9 256.4
08/05 00:50 14.5 54 6.72 5.3 15 17 1017.6 0 15.6 22.9 32.4 84.7 74.1 253.2
08/05 00:40 14.5 53 6.59 5 11 11 1017.7 0 15.3 22.7 31.9 83.4 72.5 247.7
08/05 00:30 15.2 52 6.75 5.4 13 19 1017.8 0 15.6 22.8 32.3 84.2 73.8 252.3
08/05 00:20 15.3 50 6.53 4.9 9 11 1017.8 0 15.1 22.5 31.4 82.0 71.0 242.7
08/05 00:10 15.5 50 6.61 5.1 11 13 1017.7 0 15.3 22.5 31.6 82.6 71.8 245.5
08/05 00:00 15.2 51 6.62 5.1 11 15 1017.7 0 15.3 22.6 31.8 83.0 72.2 246.8
07/05 23:50 15.6 49 6.52 4.9 11 13 1017.7 0 15.1 22.4 31.3 81.6 70.6 241.4
07/05 23:40 15.8 48 6.46 4.8 13 15 1017.8 0 15.0 22.2 31.0 80.8 69.8 238.3
07/05 23:30 16.4 46 6.42 4.8 11 20 1018 0 14.8 22.0 30.6 79.9 68.8 234.9
07/05 23:20 16.9 45 6.47 4.9 13 17 1017.9 0 14.9 22.0 30.6 79.8 68.9 235.5
07/05 23:10 16.9 45 6.47 4.9 17 20 1017.9 0 14.9 22.0 30.6 79.8 68.9 235.5
07/05 23:00 17.8 42 6.37 4.7 24 30 1017.8 0 14.7 21.6 29.9 78.0 67.0 228.8
07/05 22:50 16.4 49 6.84 5.7 20 22 1017.7 0 15.7 22.6 32.1 83.9 73.7 252.4
07/05 22:40 17 45 6.51 5 11 13 1017.9 0 15.0 22.0 30.7 80.1 69.3 236.9
07/05 22:30 17.4 45 6.67 5.4 19 24 1017.5 0 15.3 22.1 31.1 81.2 70.8 242.2
07/05 22:20 17.4 45 6.67 5.4 20 24 1017.5 0 15.3 22.1 31.1 81.2 70.8 242.2
07/05 22:10 18.1 42 6.49 5 15 17 1017.5 0 14.9 21.7 30.2 78.8 68.1 232.8
07/05 22:00 17.9 43 6.56 5.2 20 30 1017.3 0 15.1 21.9 30.5 79.6 69.1 236.2
07/05 21:50 17.8 43 6.53 5.1 20 24 1017.2 0 15.0 21.8 30.4 79.5 68.8 235.2
07/05 21:40 18 42 6.45 4.9 13 13 1017.1 0 14.9 21.7 30.1 78.5 67.7 231.4
07/05 21:30 18.4 41 6.45 4.9 11 20 1017.2 0 14.8 21.6 29.9 78.1 67.4 230.3
07/05 21:20 18.7 40 6.4 4.8 15 19 1017 0 14.7 21.4 29.7 77.4 66.5 227.4
07/05 21:10 18.7 40 6.4 4.8 19 22 1016.8 0 14.7 21.4 29.6 77.3 66.5 227.3
07/05 21:00 18.7 41 6.56 5.2 17 22 1016.7 0 15.1 21.7 30.2 78.8 68.4 233.8
07/05 20:50 19 40 6.52 5.1 15 19 1016.8 0 15.0 21.5 30.0 78.2 67.7 231.3
07/05 20:40 19.2 40 6.6 5.3 13 15 1016.6 0 15.1 21.6 30.1 78.7 68.4 233.9
07/05 20:30 19.2 41 6.76 5.6 19 28 1016.3 0 15.5 21.8 30.7 80.2 70.2 240.3
07/05 20:20 19 41 6.68 5.5 19 22 1016 0 15.3 21.7 30.5 79.6 69.4 237.6
07/05 20:10 19.6 40 6.75 5.6 17 19 1016.1 0 15.4 21.7 30.5 79.7 69.7 238.7
07/05 20:00 19.4 40 6.67 5.5 15 22 1016.2 0 15.3 21.6 30.3 79.1 69.0 236.1

Last Refresh: 08-May-2026 12:07:28

Bureau of Meteorology